Portada
METAR-TAF:

METAR-TAF

Aeropuertos :

Aeropuerto de Rabat-Salé

Rabat, Marruecos

latitud: 34-03N, longitud: 006-46W, altitud: 84 m

Observación

El informe se hizo hace 17 minutos, a las 04:00 UTC
Viento calma
Temperatura 22°C
Humedad 94%
Presión 1013 hPa
Visibilidad: 6000 m
Cielo nuboso a una altura de 600 ft
Cielo nuboso a una altura de 1600 ft

METAR: GMME 300400Z 00000KT 6000 BKN006 BKN016 22/21 Q1013 NOSIG

Hora: 05:17 (04:17 UTC)

Pronóstico

El informe se hizo hace 5 horas y 17 minutos, a las 23:00 UTC
Pronóstico válido del 30 a las 00 UTC al 31 a las 06 UTC
Viento kt del norte
Visibilidad: 6000 m
Nubes dispersas a una altura de 900 ft
Cielo nuboso a una altura de 1500 ft
Evolucionando progresivamente
del 30 a las 10 UTC al 30 a las 13 UTC
Viento 10 kt del noroeste
Visibilidad 10 km o más
Nubes dispersas a una altura de 2000 ft

TAF: GMME 292300Z 3000/3106 00000KT 6000 SCT009 BKN015 BECMG 3010/3013 32010KT 9999 SCT020

Observaciones y pronósticos meteorológicos de más de 4000 aeropuertos (mensajes METAR y TAF).

Los puntos amarillos y rojos representan las estaciones disponibles.

Ponga el ratón en el punto deseado para ver el nombre de la estación.

Haga clic para ver las observaciones y los pronósticos meteorológicos.

Para cambiar el mapa : haga clic en los botones verdes con una cruz de color negro para hacer un zoom, en el botón verde con un guión para alejar o en las flechas verdes para mapas adyacentes.


METAR-TAF: